createdAt,value
2022-08-29T13:46:37.234Z,21.18
2022-08-29T13:48:41.139Z,21.67
2022-08-29T13:50:42.828Z,21.85
2022-08-29T13:52:44.720Z,21.97
2022-08-29T13:54:46.378Z,21.60
2022-08-29T13:56:50.296Z,20.45
2022-08-29T13:58:52.183Z,22.16
2022-08-29T14:00:54.258Z,22.37
2022-08-29T14:03:04.779Z,22.71
2022-08-29T14:05:10.608Z,22.89
2022-08-29T14:07:17.925Z,23.25
2022-08-29T14:09:22.471Z,21.37
2022-08-29T14:11:24.015Z,22.41
2022-08-29T14:13:25.783Z,23.76
2022-08-29T14:15:27.470Z,23.86
2022-08-29T14:17:29.067Z,23.91
2022-08-29T14:19:32.279Z,24.84
2022-08-29T14:21:35.296Z,24.81
2022-08-29T14:23:54.359Z,25.14
2022-08-29T14:25:56.126Z,23.67
2022-08-29T14:27:57.702Z,25.08
2022-08-29T14:29:59.273Z,25.44
2022-08-29T14:32:02.901Z,25.29
2022-08-29T14:34:05.195Z,25.09
2022-08-29T14:36:08.003Z,25.99
2022-08-29T14:38:11.317Z,25.33
2022-08-29T14:40:13.919Z,26.11
2022-08-29T14:42:15.568Z,25.33
2022-08-29T14:44:41.193Z,23.13
2022-08-29T14:46:43.094Z,25.90
2022-08-29T14:48:44.654Z,26.10
2022-08-29T14:50:46.244Z,24.20
2022-08-29T14:52:47.815Z,24.54
2022-08-29T14:54:50.877Z,26.33
2022-08-29T14:56:52.442Z,26.26
2022-08-29T14:58:54.043Z,23.06
2022-08-29T15:04:36.091Z,24.06
2022-08-29T15:06:39.694Z,23.97
2022-08-29T15:08:41.306Z,25.99
2022-08-29T15:10:44.313Z,25.87
2022-08-29T15:12:46.131Z,26.02
2022-08-29T15:14:47.992Z,25.49
2022-08-29T15:16:49.562Z,25.10
2022-08-29T15:21:44.213Z,25.66
2022-08-29T15:23:46.203Z,24.80
2022-08-29T15:25:51.742Z,24.23
2022-08-29T15:27:53.783Z,24.98
2022-08-29T15:29:55.458Z,25.52
2022-08-29T15:31:57.109Z,23.84
2022-08-29T15:33:58.678Z,25.93
2022-08-29T15:36:00.290Z,26.95
2022-08-29T15:38:13.355Z,24.29
2022-08-29T15:42:50.049Z,27.54
2022-08-29T15:44:51.637Z,27.93
2022-08-29T15:46:54.532Z,27.92
2022-08-29T15:48:56.168Z,26.74
2022-08-29T15:50:57.866Z,25.26
2022-08-29T15:52:59.458Z,24.07
2022-08-29T15:55:01.221Z,25.41
2022-08-29T15:57:16.097Z,24.84
2022-08-29T15:59:31.005Z,23.90
2022-08-29T16:01:45.351Z,26.92
2022-08-29T16:03:47.107Z,28.03
2022-08-29T16:05:48.685Z,28.18
2022-08-29T16:07:50.374Z,27.80
2022-08-29T16:09:52.382Z,28.34
2022-08-29T16:11:54.065Z,25.81
2022-08-29T16:14:15.624Z,27.68
2022-08-29T16:19:09.097Z,28.46
2022-08-29T16:21:10.691Z,28.71
2022-08-29T16:23:12.333Z,28.68
2022-08-29T16:25:14.245Z,28.43
2022-08-29T16:27:16.012Z,27.49
2022-08-29T16:29:18.124Z,28.47
2022-08-29T16:31:29.368Z,28.39
2022-08-29T16:33:31.095Z,28.69
2022-08-29T16:35:36.712Z,28.82
2022-08-29T16:38:02.826Z,25.77
2022-08-29T16:40:07.254Z,28.40
2022-08-29T16:42:09.254Z,26.51
2022-08-29T16:44:10.856Z,27.69
2022-08-29T16:46:12.491Z,28.01
2022-08-29T16:48:17.667Z,24.91
2022-08-29T16:50:19.758Z,25.48
2022-08-29T16:52:21.425Z,25.43
2022-08-29T16:54:23.185Z,24.79
2022-08-29T16:56:25.415Z,24.71
2022-08-29T16:58:27.305Z,25.02
2022-08-29T17:03:20.318Z,24.28
2022-08-29T17:05:22.322Z,24.02
2022-08-29T17:07:24.776Z,24.47
2022-08-29T17:09:26.562Z,25.01
2022-08-29T17:11:28.823Z,24.52
2022-08-29T17:13:30.625Z,25.25
2022-08-29T17:15:33.547Z,26.09
2022-08-29T17:17:35.139Z,27.62
2022-08-29T17:19:43.330Z,24.69
2022-08-29T17:21:45.415Z,24.89
2022-08-29T17:23:47.159Z,24.76
2022-08-29T17:25:48.691Z,24.76
2022-08-29T17:28:14.135Z,24.07
2022-08-29T17:30:12.798Z,24.98
2022-08-29T17:32:19.369Z,24.50
2022-08-29T17:34:20.942Z,25.21
2022-08-29T17:36:23.919Z,24.50
2022-08-29T17:38:26.248Z,24.47
2022-08-29T17:40:33.905Z,24.64
2022-08-29T17:42:55.993Z,25.10
2022-08-29T17:44:57.822Z,24.30
2022-08-29T17:46:59.394Z,25.94
2022-08-29T17:49:05.477Z,24.56
2022-08-29T17:51:09.742Z,24.29
2022-08-29T17:53:13.882Z,26.24
2022-08-29T17:55:15.461Z,25.16
2022-08-29T17:57:18.948Z,24.97
2022-08-29T17:59:44.565Z,24.99
2022-08-29T18:02:18.772Z,27.16
2022-08-29T18:04:20.691Z,24.93
2022-08-29T18:06:22.330Z,24.76
2022-08-29T18:08:25.331Z,25.94
2022-08-29T18:10:27.265Z,25.33
2022-08-29T18:12:28.912Z,25.44
2022-08-29T18:14:30.999Z,25.28
2022-08-29T18:16:34.283Z,27.15
2022-08-29T18:21:30.514Z,25.46
2022-08-29T18:23:34.328Z,25.23
2022-08-29T18:25:35.964Z,25.98
2022-08-29T18:27:40.854Z,25.47
2022-08-29T18:29:45.135Z,25.74
2022-08-29T18:31:46.962Z,24.69
2022-08-29T18:34:03.887Z,24.82
2022-08-29T18:36:34.668Z,25.12
2022-08-29T18:39:34.490Z,25.42
2022-08-29T18:41:37.500Z,25.47
2022-08-29T18:43:39.224Z,25.00
2022-08-29T18:45:41.241Z,25.24
2022-08-29T18:47:43.144Z,25.62
2022-08-29T18:49:44.738Z,24.81
2022-08-29T18:51:46.843Z,25.99
2022-08-29T18:57:11.722Z,25.61
2022-08-29T18:59:16.205Z,25.60
2022-08-29T19:01:27.993Z,25.73
2022-08-29T19:03:29.997Z,25.08
2022-08-29T19:05:33.720Z,25.34
2022-08-29T19:07:35.405Z,24.88
2022-08-29T19:09:36.998Z,25.43
2022-08-29T19:11:40.088Z,25.20
2022-08-29T19:13:41.690Z,24.92
2022-08-29T19:15:43.757Z,25.15
2022-08-29T19:17:45.708Z,25.14
2022-08-29T19:19:57.107Z,25.07
2022-08-29T19:21:58.855Z,24.88
2022-08-29T19:24:00.474Z,25.51
2022-08-29T19:26:04.500Z,25.27
2022-08-29T19:28:08.280Z,24.94
2022-08-29T19:30:11.151Z,25.29
2022-08-29T19:32:13.917Z,25.29
2022-08-29T19:34:15.480Z,25.88
2022-08-29T19:36:17.088Z,25.21
2022-08-29T19:38:20.892Z,30.60
2022-08-29T19:40:24.458Z,26.02
2022-08-29T19:42:44.280Z,26.27
2022-08-29T19:44:47.243Z,25.71
2022-08-29T19:46:49.841Z,25.87
2022-08-29T19:48:54.140Z,25.51
2022-08-29T19:50:55.789Z,25.69
2022-08-29T19:52:57.476Z,24.85
2022-08-29T19:54:59.127Z,26.84
2022-08-29T19:57:01.632Z,25.89
2022-08-29T19:59:03.958Z,25.44
2022-08-29T20:01:15.839Z,25.47
2022-08-29T20:03:29.238Z,25.96
2022-08-29T20:05:31.487Z,25.37
2022-08-29T20:07:33.647Z,26.14
2022-08-29T20:09:35.331Z,25.22
2022-08-29T20:11:43.753Z,25.15
2022-08-29T20:13:50.477Z,25.36
2022-08-29T20:15:52.598Z,25.64
2022-08-29T20:17:56.853Z,25.49
2022-08-29T20:20:40.703Z,25.85
2022-08-29T20:22:53.122Z,25.85
2022-08-29T20:24:55.024Z,25.99
2022-08-29T20:26:56.756Z,25.84
2022-08-29T20:29:05.328Z,26.54
2022-08-29T20:31:07.130Z,28.53
2022-08-29T20:33:11.284Z,26.08
2022-08-29T20:35:13.724Z,26.94
2022-08-29T20:37:21.310Z,26.08
2022-08-29T20:39:46.523Z,27.16
2022-08-29T20:42:06.478Z,27.01
2022-08-29T20:44:08.429Z,26.50
2022-08-29T20:46:12.012Z,26.49
2022-08-29T20:48:15.750Z,27.68
2022-08-29T20:50:17.836Z,26.00
2022-08-29T20:52:19.855Z,27.14
2022-08-29T20:54:23.953Z,33.33
2022-08-29T20:56:25.815Z,26.80
2022-08-29T20:59:23.533Z,26.81
2022-08-29T21:01:28.116Z,26.48
2022-08-29T21:03:31.113Z,26.63
2022-08-29T21:05:32.805Z,26.85
2022-08-29T21:07:34.368Z,27.38
2022-08-29T21:09:39.701Z,26.72
2022-08-29T21:11:41.281Z,27.04
2022-08-29T21:13:42.873Z,26.46
2022-08-29T21:15:53.624Z,27.60
2022-08-29T21:17:59.008Z,30.09
2022-08-29T21:20:02.186Z,29.54
2022-08-29T21:22:08.634Z,27.76
2022-08-29T21:24:10.983Z,26.23
2022-08-29T21:26:13.717Z,26.71
2022-08-29T21:28:15.390Z,26.71
2022-08-29T21:30:17.132Z,26.22
2022-08-29T21:32:18.717Z,28.26
2022-08-29T21:34:22.166Z,26.20
2022-08-29T21:36:48.219Z,26.33
2022-08-29T21:38:52.818Z,25.80
2022-08-29T21:40:54.913Z,26.42
2022-08-29T21:42:56.503Z,25.64
2022-08-29T21:44:58.160Z,26.97
2022-08-29T21:47:00.250Z,26.61
2022-08-29T21:49:05.983Z,26.05
2022-08-29T21:51:07.550Z,26.13
2022-08-29T21:53:31.817Z,25.70
2022-08-29T21:55:50.268Z,26.57
2022-08-29T21:57:52.406Z,25.73
2022-08-29T21:59:53.967Z,25.94
2022-08-29T22:01:55.943Z,26.15
2022-08-29T22:03:58.483Z,26.46
2022-08-29T22:06:00.086Z,26.20
2022-08-29T22:08:02.303Z,28.11
2022-08-29T22:10:06.126Z,26.64
2022-08-29T22:12:13.382Z,27.06
2022-08-29T22:14:15.260Z,26.65
2022-08-29T22:16:16.892Z,26.93
2022-08-29T22:18:18.852Z,27.08
2022-08-29T22:20:20.628Z,28.04
2022-08-29T22:22:22.216Z,26.83
2022-08-29T22:24:23.748Z,27.04
2022-08-29T22:26:27.217Z,32.38
2022-08-29T22:28:28.956Z,30.77
2022-08-29T22:30:57.098Z,27.57
2022-08-29T22:33:03.738Z,26.52
2022-08-29T22:35:07.492Z,26.58
2022-08-29T22:37:09.023Z,26.65
2022-08-29T22:39:10.669Z,26.68
2022-08-29T22:41:16.340Z,26.88
2022-08-29T22:43:20.598Z,27.02
2022-08-29T22:45:22.336Z,26.29
2022-08-29T22:47:30.174Z,29.20
2022-08-29T22:49:49.293Z,27.95
2022-08-29T22:52:05.891Z,27.15
2022-08-29T22:54:10.964Z,26.79
2022-08-29T22:56:12.507Z,26.47
2022-08-29T22:58:14.287Z,27.12
2022-08-29T23:00:19.811Z,26.72
2022-08-29T23:02:21.641Z,26.68
2022-08-29T23:04:23.551Z,26.82
2022-08-29T23:06:26.694Z,29.76
2022-08-29T23:08:28.272Z,27.15
2022-08-29T23:10:29.895Z,27.25
2022-08-29T23:12:31.451Z,27.67
2022-08-29T23:14:33.746Z,27.23
2022-08-29T23:16:36.903Z,27.56
2022-08-29T23:18:42.185Z,27.59
2022-08-29T23:20:46.895Z,27.32
2022-08-29T23:22:48.929Z,27.47
2022-08-29T23:24:57.787Z,28.04
2022-08-29T23:27:00.643Z,27.53
2022-08-29T23:29:05.664Z,27.91
2022-08-29T23:31:07.345Z,27.16
2022-08-29T23:33:10.286Z,28.43
2022-08-29T23:35:14.562Z,28.31
2022-08-29T23:37:46.976Z,28.04
2022-08-29T23:40:00.640Z,27.50
2022-08-29T23:42:02.534Z,27.97
2022-08-29T23:44:04.171Z,27.57
2022-08-29T23:46:06.359Z,27.72
2022-08-29T23:48:08.003Z,28.17
2022-08-29T23:50:11.677Z,28.30
2022-08-29T23:52:13.242Z,27.98
2022-08-29T23:56:55.976Z,28.23
2022-08-29T23:58:57.996Z,27.89
